Time;durP1;ratioP1;P1;durP2;ratioP2;P2;SDS_P1;SDS_P2;PMS_P1;PMS_P2;Temp;Humidity;BMP_temperature;BMP_pressure;BME280_temperature;BME280_humidity;BME280_pressure;Samples;Min_cycle;Max_cycle;Signal;HPM_P1;HPM_P2
2021/04/26 00:03:37;;;;;;;8.67;5.87;;;;;;;0.13;100.00;100844.41;21023958;27;20608;-59
2021/04/26 00:33:31;;;;;;;9.17;5.50;;;;;;;0.78;100.00;100828.59;20882180;27;20594;-60
2021/04/26 00:53:27;;;;;;;10.37;5.20;;;;;;;0.45;100.00;100824.75;20883967;27;20615;-59
2021/04/26 01:53:19;;;;;;;28.03;11.80;;;;;;;0.84;100.00;100816.25;21031995;27;20532;-63
2021/04/26 02:23:12;;;;;;;10.53;6.43;;;;;;;1.36;100.00;100791.63;20805761;28;20611;-67
2021/04/26 02:43:13;;;;;;;7.57;5.13;;;;;;;1.42;100.00;100805.56;20945999;27;20557;-68
2021/04/26 02:53:15;;;;;;;9.13;5.43;;;;;;;1.59;100.00;100788.56;20947387;28;20260;-62
2021/04/26 03:03:16;;;;;;;7.70;4.73;;;;;;;1.70;99.13;100782.19;20942052;28;20211;-67
2021/04/26 03:13:17;;;;;;;8.60;4.87;;;;;;;1.28;98.07;100775.16;20952762;28;20707;-65
2021/04/26 03:53:04;;;;;;;7.90;4.60;;;;;;;0.80;100.00;100808.44;21040044;27;20891;-67
2021/04/26 04:32:51;;;;;;;9.57;4.83;;;;;;;2.45;94.04;100794.56;21019948;27;21096;-60
2021/04/26 04:42:52;;;;;;;8.13;5.47;;;;;;;2.68;91.87;100816.84;21037949;28;20219;-59
2021/04/26 06:22:26;;;;;;;3.43;2.20;;;;;;;3.66;80.33;100852.97;20863172;27;20602;-61
2021/04/26 07:02:27;;;;;;;1.83;1.10;;;;;;;5.32;67.71;100864.56;20833265;27;20574;-60
2021/04/26 07:12:28;;;;;;;1.30;1.13;;;;;;;5.36;67.48;100858.25;20823870;28;20237;-59
2021/04/26 07:32:23;;;;;;;1.30;0.90;;;;;;;6.81;62.02;100848.44;20911540;27;915795;-67
2021/04/26 07:42:24;;;;;;;0.97;0.87;;;;;;;6.85;59.18;100854.50;20925292;28;20280;-64
2021/04/26 08:12:15;;;;;;;0.73;0.73;;;;;;;6.65;52.60;100828.75;20695998;28;21360;-65
2021/04/26 08:22:16;;;;;;;1.08;0.80;;;;;;;7.77;52.77;100825.75;20672427;28;20228;-64
2021/04/26 08:32:18;;;;;;;1.43;1.23;;;;;;;7.73;51.49;100834.78;20696266;28;20228;-62
2021/04/26 08:42:19;;;;;;;1.50;1.33;;;;;;;7.62;44.35;100838.84;20730505;28;20275;-60
2021/04/26 08:52:19;;;;;;;1.00;0.90;;;;;;;7.63;51.09;100824.63;20717674;28;20247;-62
2021/04/26 09:02:20;;;;;;;1.30;0.50;;;;;;;8.76;47.82;100821.13;20700647;28;20333;-61
2021/04/26 09:12:31;;;;;;;0.60;0.60;;;;;;;7.83;47.09;100782.97;20722857;28;20225;-59
2021/04/26 09:22:51;;;;;;;0.73;0.70;;;;;;;8.21;47.75;100815.72;20608787;28;20228;-58
2021/04/26 09:33:37;;;;;;;1.00;0.80;;;;;;;8.91;46.27;100815.06;20650397;28;20256;-59
2021/04/26 09:43:40;;;;;;;1.03;0.70;;;;;;;9.17;47.53;100799.59;20641273;28;20346;-59
2021/04/26 09:53:41;;;;;;;0.80;0.80;;;;;;;9.63;49.55;100803.41;20637000;28;20243;-59
2021/04/26 10:03:42;;;;;;;1.03;0.83;;;;;;;9.51;45.46;100799.56;20637150;28;20244;-62
2021/04/26 10:13:43;;;;;;;0.80;0.80;;;;;;;9.08;47.37;100794.72;20655716;28;20273;-59
2021/04/26 10:23:45;;;;;;;0.70;0.70;;;;;;;9.07;49.89;100792.97;20647493;28;20729;-59
2021/04/26 10:34:09;;;;;;;2.50;1.03;;;;;;;10.13;44.29;100767.81;20618656;28;20243;-63
2021/04/26 10:44:09;;;;;;;1.67;0.90;;;;;;;10.54;49.66;100746.84;20605298;28;20359;-59
2021/04/26 10:54:10;;;;;;;0.90;0.90;;;;;;;10.76;46.00;100769.53;20600656;28;20296;-58
2021/04/26 11:04:11;;;;;;;0.97;0.97;;;;;;;10.46;46.38;100774.84;20618683;28;20712;-61
2021/04/26 11:14:20;;;;;;;1.90;1.40;;;;;;;9.41;48.64;100774.38;20646324;28;20238;-63
2021/04/26 11:24:24;;;;;;;1.70;1.33;;;;;;;8.41;52.99;100787.41;20607495;28;20234;-66
2021/04/26 11:34:24;;;;;;;1.43;1.20;;;;;;;8.16;56.21;100801.81;20614231;28;20234;-61
2021/04/26 11:44:29;;;;;;;1.00;0.90;;;;;;;7.85;54.79;100766.94;20587645;28;20224;-59
2021/04/26 11:54:29;;;;;;;1.27;1.17;;;;;;;7.99;53.28;100775.13;20601059;28;20280;-62
2021/04/26 12:04:37;;;;;;;1.63;1.33;;;;;;;8.26;53.89;100747.28;20595142;28;20233;-62
2021/04/26 12:14:43;;;;;;;2.67;1.30;;;;;;;7.70;55.11;100757.03;20612198;28;20308;-69
2021/04/26 12:24:44;;;;;;;1.90;1.80;;;;;;;7.78;58.68;100733.63;20600580;28;20348;-61
2021/04/26 12:34:53;;;;;;;4.70;3.80;;;;;;;8.52;56.18;100737.19;20625068;28;20714;-62
2021/04/26 12:45:07;;;;;;;1.70;1.60;;;;;;;8.33;52.76;100705.34;20596999;28;20231;-64
2021/04/26 12:55:12;;;;;;;2.30;2.10;;;;;;;7.68;62.49;100748.28;20642057;28;20225;-63
2021/04/26 13:05:13;;;;;;;2.43;1.90;;;;;;;7.02;65.56;100721.09;20621093;28;20234;-63
2021/04/26 13:15:23;;;;;;;1.20;1.10;;;;;;;7.09;63.65;100711.97;20609028;28;21081;-66
2021/04/26 13:25:30;;;;;;;1.43;1.33;;;;;;;7.30;59.84;100684.47;20643821;28;20226;-63
2021/04/26 13:35:30;;;;;;;1.90;1.60;;;;;;;7.55;57.22;100687.75;20599996;28;20241;-62
2021/04/26 13:45:31;;;;;;;1.73;1.63;;;;;;;7.69;57.58;100670.31;20623163;28;20248;-59
2021/04/26 13:55:31;;;;;;;1.67;1.57;;;;;;;7.68;59.39;100690.69;20599847;28;20552;-59
2021/04/26 14:05:32;;;;;;;1.50;1.40;;;;;;;7.67;59.18;100672.16;20619821;28;20224;-60
2021/04/26 14:15:32;;;;;;;1.57;1.23;;;;;;;7.94;58.65;100660.25;20621174;28;20244;-61
2021/04/26 14:25:34;;;;;;;1.63;1.27;;;;;;;8.01;58.09;100640.41;20621206;28;21039;-59
2021/04/26 14:35:36;;;;;;;2.43;1.33;;;;;;;8.10;53.03;100624.00;20640980;28;20632;-62
2021/04/26 14:45:37;;;;;;;1.37;1.17;;;;;;;8.21;51.25;100608.38;20612741;28;21103;-60
2021/04/26 14:55:37;;;;;;;1.87;1.50;;;;;;;8.54;52.38;100602.34;20618894;28;20233;-59
2021/04/26 15:05:38;;;;;;;1.60;1.50;;;;;;;8.87;50.55;100579.28;20624365;28;20477;-61
2021/04/26 15:15:38;;;;;;;2.20;1.60;;;;;;;9.22;51.04;100584.50;20624386;28;20284;-59
2021/04/26 15:25:41;;;;;;;2.97;1.70;;;;;;;9.21;49.97;100566.81;20613267;28;20763;-57
2021/04/26 15:35:45;;;;;;;2.57;2.00;;;;;;;8.09;57.04;100638.22;20603827;28;22170;-58
2021/04/26 15:45:47;;;;;;;3.23;1.70;;;;;;;6.98;60.80;100619.59;20591509;28;20241;-57
2021/04/26 15:55:47;;;;;;;1.60;1.50;;;;;;;6.36;62.04;100620.50;20602206;28;20226;-58
2021/04/26 16:05:48;;;;;;;1.83;1.70;;;;;;;6.22;66.42;100616.72;20607090;28;20244;-61
2021/04/26 16:15:48;;;;;;;9.63;5.40;;;;;;;5.98;66.39;100598.25;20592266;28;20229;-61
2021/04/26 16:25:49;;;;;;;4.05;3.10;;;;;;;5.80;67.56;100591.00;20604415;28;20235;-60
2021/04/26 16:45:45;;;;;;;2.20;2.00;;;;;;;6.04;63.06;100575.94;20825016;27;20559;-60
2021/04/26 16:55:46;;;;;;;4.20;2.83;;;;;;;6.04;61.90;100576.78;20801804;28;20519;-62
2021/04/26 17:05:47;;;;;;;3.10;2.03;;;;;;;5.91;63.49;100578.25;20816399;28;20220;-66
2021/04/26 17:15:47;;;;;;;2.27;1.50;;;;;;;6.28;62.45;100584.66;20797597;28;20223;-65
2021/04/26 17:25:48;;;;;;;4.20;2.97;;;;;;;6.54;60.25;100570.28;20807714;28;20239;-62
2021/04/26 17:35:48;;;;;;;4.07;3.17;;;;;;;6.17;61.47;100570.97;20808128;28;21499;-64
2021/04/26 17:45:49;;;;;;;5.83;4.83;;;;;;;5.53;63.86;100573.59;20808161;28;20240;-66
2021/04/26 17:55:50;;;;;;;4.85;3.90;;;;;;;4.91;66.43;100568.91;20766606;28;20999;-62
2021/04/26 18:15:48;;;;;;;5.27;3.40;;;;;;;4.07;69.89;100578.97;20987821;27;20542;-60
2021/04/26 18:25:49;;;;;;;32.30;17.17;;;;;;;3.74;71.00;100586.22;20966718;28;20265;-60
2021/04/26 18:45:44;;;;;;;17.97;12.37;;;;;;;3.29;74.07;100596.41;20894643;27;20677;-59
2021/04/26 19:05:45;;;;;;;11.73;6.97;;;;;;;3.05;77.04;100609.41;21018706;27;20644;-59
2021/04/26 19:35:41;;;;;;;17.03;8.30;;;;;;;2.56;80.90;100620.44;21035686;27;20620;-59
2021/04/26 20:35:26;;;;;;;14.20;8.87;;;;;;;1.67;89.00;100613.03;20765995;28;20646;-60
2021/04/26 20:55:24;;;;;;;24.33;15.00;;;;;;;1.43;90.59;100619.72;20802023;28;20608;-58
2021/04/26 22:54:43;;;;;;;8.50;5.57;;;;;;;0.04;100.00;100645.16;20879859;27;20582;-60
2021/04/26 23:24:46;;;;;;;10.80;6.90;;;;;;;-0.29;100.00;100636.06;20778638;28;20646;-62
2021/04/26 23:34:47;;;;;;;12.18;7.10;;;;;;;-0.61;100.00;100641.78;20778953;28;20229;-61
2021/04/26 23:54:45;;;;;;;15.60;8.73;;;;;;;-0.51;100.00;100619.78;21041371;27;20563;-60
